createdAt,value
2022-10-29T00:16:05.977Z,4.00
2022-10-29T00:26:44.802Z,4.37
2022-10-29T21:31:36.234Z,3.13
2022-10-29T21:34:04.907Z,3.10
2022-10-29T21:36:33.262Z,3.30
2022-10-29T21:39:01.803Z,2.90
2022-10-29T21:41:30.263Z,3.10
2022-10-29T21:43:58.584Z,2.83
2022-10-29T21:46:27.011Z,3.10
2022-10-29T21:48:57.810Z,2.93
2022-10-29T21:51:26.198Z,2.77
2022-10-29T21:53:55.175Z,3.33
2022-10-29T21:56:24.480Z,2.87
2022-10-29T21:58:53.364Z,3.40
2022-10-29T22:01:21.885Z,2.50
2022-10-29T22:03:50.462Z,2.80
2022-10-29T22:06:21.805Z,2.63
2022-10-29T22:08:54.847Z,2.87
2022-10-29T22:11:24.331Z,3.03
2022-10-29T22:13:53.604Z,2.60
2022-10-29T22:16:22.671Z,2.60
2022-10-29T22:18:51.448Z,2.73
2022-10-29T22:21:23.284Z,2.43
2022-10-29T22:23:53.237Z,2.97
2022-10-29T22:26:23.772Z,2.50
2022-10-29T22:28:52.132Z,2.63
2022-10-29T22:31:21.979Z,2.57
2022-10-29T22:33:51.331Z,2.40
2022-10-29T22:36:24.175Z,2.30
2022-10-29T22:38:54.269Z,2.30
2022-10-29T22:41:23.160Z,2.63
2022-10-29T22:43:51.607Z,2.50
2022-10-29T22:46:21.536Z,2.30
2022-10-29T22:48:50.351Z,2.43
2022-10-29T22:51:22.672Z,2.83
2022-10-29T22:53:52.424Z,2.63
2022-10-29T22:56:23.518Z,2.40
2022-10-29T22:58:52.432Z,2.40
2022-10-29T23:01:22.680Z,2.33
2022-10-29T23:03:51.605Z,2.47
2022-10-29T23:06:23.078Z,2.40
2022-10-29T23:08:53.057Z,2.40
2022-10-29T23:11:23.301Z,2.27
2022-10-29T23:13:53.417Z,2.43
2022-10-29T23:16:22.888Z,2.27
2022-10-29T23:18:51.932Z,1.97
2022-10-29T23:21:22.461Z,1.97
2022-10-29T23:23:51.258Z,2.50
2022-10-29T23:26:20.576Z,2.10
2022-10-29T23:28:49.364Z,2.20
2022-10-29T23:31:19.764Z,2.60
2022-10-29T23:33:50.234Z,2.17
2022-10-29T23:36:19.693Z,2.37
2022-10-29T23:38:49.675Z,2.33
2022-10-29T23:41:17.981Z,2.37
2022-10-29T23:43:46.270Z,2.40
2022-10-29T23:46:14.569Z,2.17
2022-10-29T23:48:42.912Z,2.33
2022-10-29T23:51:11.494Z,2.40
2022-10-29T23:53:40.263Z,1.87
2022-10-29T23:56:10.249Z,2.40
2022-10-29T23:58:38.546Z,2.10
